sensor_id;sensor_type;location;lat;lon;timestamp;pressure;altitude;pressure_sealevel;temperature;humidity
78932;BME280;68331;53.362;55.932;2023-07-13T00:00:45;99461.81;;;16.04;56.58
78932;BME280;68331;53.362;55.932;2023-07-13T00:03:10;99466.41;;;16.02;56.58
78932;BME280;68331;53.362;55.932;2023-07-13T00:05:40;99458.59;;;15.99;56.99
78932;BME280;68331;53.362;55.932;2023-07-13T00:08:07;99455.53;;;15.91;57.01
78932;BME280;68331;53.362;55.932;2023-07-13T00:10:39;99462.59;;;15.92;57.25
78932;BME280;68331;53.362;55.932;2023-07-13T00:13:05;99452.59;;;15.96;57.00
78932;BME280;68331;53.362;55.932;2023-07-13T00:15:31;99452.59;;;15.96;56.85
78932;BME280;68331;53.362;55.932;2023-07-13T00:17:57;99458.19;;;15.91;57.32
78932;BME280;68331;53.362;55.932;2023-07-13T00:20:24;99463.50;;;15.91;57.24
78932;BME280;68331;53.362;55.932;2023-07-13T00:22:54;99461.44;;;15.96;57.25
78932;BME280;68331;53.362;55.932;2023-07-13T00:25:21;99462.28;;;15.97;57.21
78932;BME280;68331;53.362;55.932;2023-07-13T00:27:47;99456.88;;;15.98;57.18
78932;BME280;68331;53.362;55.932;2023-07-13T00:30:17;99459.81;;;15.94;57.15
78932;BME280;68331;53.362;55.932;2023-07-13T00:32:43;99461.50;;;15.95;57.01
78932;BME280;68331;53.362;55.932;2023-07-13T00:35:09;99455.16;;;15.97;57.00
78932;BME280;68331;53.362;55.932;2023-07-13T00:37:35;99462.19;;;15.98;57.05
78932;BME280;68331;53.362;55.932;2023-07-13T00:40:05;99460.66;;;15.94;57.32
78932;BME280;68331;53.362;55.932;2023-07-13T00:42:31;99458.13;;;15.93;57.25
78932;BME280;68331;53.362;55.932;2023-07-13T00:47:43;99449.66;;;16.00;57.14
78932;BME280;68331;53.362;55.932;2023-07-13T00:50:15;99453.84;;;16.04;57.08
78932;BME280;68331;53.362;55.932;2023-07-13T00:52:45;99458.03;;;16.09;57.37
78932;BME280;68331;53.362;55.932;2023-07-13T00:55:13;99454.06;;;16.16;56.77
78932;BME280;68331;53.362;55.932;2023-07-13T00:57:40;99455.75;;;16.17;56.85
78932;BME280;68331;53.362;55.932;2023-07-13T01:00:08;99452.91;;;16.20;56.83
78932;BME280;68331;53.362;55.932;2023-07-13T01:02:37;99452.34;;;16.15;56.63
78932;BME280;68331;53.362;55.932;2023-07-13T01:05:15;99448.44;;;16.06;56.67
78932;BME280;68331;53.362;55.932;2023-07-13T01:07:43;99449.28;;;16.07;57.00
78932;BME280;68331;53.362;55.932;2023-07-13T01:10:12;99450.50;;;16.01;57.21
78932;BME280;68331;53.362;55.932;2023-07-13T01:12:38;99454.97;;;16.00;57.56
78932;BME280;68331;53.362;55.932;2023-07-13T01:15:05;99445.84;;;16.04;57.16
78932;BME280;68331;53.362;55.932;2023-07-13T01:17:34;99451.75;;;16.10;56.85
78932;BME280;68331;53.362;55.932;2023-07-13T01:20:00;99452.53;;;16.12;57.09
78932;BME280;68331;53.362;55.932;2023-07-13T01:22:26;99438.47;;;16.10;57.06
78932;BME280;68331;53.362;55.932;2023-07-13T01:24:54;99442.56;;;16.15;57.02
78932;BME280;68331;53.362;55.932;2023-07-13T01:27:22;99440.56;;;16.19;56.99
78932;BME280;68331;53.362;55.932;2023-07-13T01:29:52;99442.06;;;16.23;56.61
78932;BME280;68331;53.362;55.932;2023-07-13T01:32:22;99439.34;;;16.24;56.91
78932;BME280;68331;53.362;55.932;2023-07-13T01:34:51;99442.47;;;16.31;56.85
78932;BME280;68331;53.362;55.932;2023-07-13T01:37:21;99442.81;;;16.39;56.38
78932;BME280;68331;53.362;55.932;2023-07-13T01:39:47;99439.78;;;16.45;56.29
78932;BME280;68331;53.362;55.932;2023-07-13T01:42:13;99443.59;;;16.41;56.53
78932;BME280;68331;53.362;55.932;2023-07-13T01:44:41;99439.91;;;16.44;56.31
78932;BME280;68331;53.362;55.932;2023-07-13T01:47:08;99439.22;;;16.55;56.18
78932;BME280;68331;53.362;55.932;2023-07-13T01:49:34;99444.72;;;16.66;55.99
78932;BME280;68331;53.362;55.932;2023-07-13T01:52:00;99449.56;;;16.73;55.96
78932;BME280;68331;53.362;55.932;2023-07-13T01:54:26;99439.00;;;16.72;55.33
78932;BME280;68331;53.362;55.932;2023-07-13T01:56:52;99439.88;;;16.72;55.66
78932;BME280;68331;53.362;55.932;2023-07-13T01:59:19;99440.06;;;16.84;55.41
78932;BME280;68331;53.362;55.932;2023-07-13T02:01:45;99423.34;;;16.82;55.21
78932;BME280;68331;53.362;55.932;2023-07-13T02:04:11;99437.66;;;16.93;55.09
78932;BME280;68331;53.362;55.932;2023-07-13T02:06:36;99432.91;;;16.84;55.33
78932;BME280;68331;53.362;55.932;2023-07-13T02:09:02;99437.09;;;16.88;55.23
78932;BME280;68331;53.362;55.932;2023-07-13T02:11:28;99433.69;;;16.86;55.22
78932;BME280;68331;53.362;55.932;2023-07-13T02:14:01;99441.16;;;16.94;55.11
78932;BME280;68331;53.362;55.932;2023-07-13T02:16:30;99436.56;;;17.10;54.83
78932;BME280;68331;53.362;55.932;2023-07-13T02:18:57;99419.94;;;17.19;54.14
78932;BME280;68331;53.362;55.932;2023-07-13T02:21:23;99434.81;;;17.63;53.02
78932;BME280;68331;53.362;55.932;2023-07-13T02:23:52;99434.78;;;18.91;50.06
78932;BME280;68331;53.362;55.932;2023-07-13T02:26:18;99434.75;;;20.56;46.22
78932;BME280;68331;53.362;55.932;2023-07-13T02:28:44;99426.03;;;21.94;42.04
78932;BME280;68331;53.362;55.932;2023-07-13T02:31:14;99422.81;;;21.58;42.43
78932;BME280;68331;53.362;55.932;2023-07-13T02:33:41;99431.81;;;20.59;44.67
78932;BME280;68331;53.362;55.932;2023-07-13T02:36:08;99422.91;;;20.25;45.84
78932;BME280;68331;53.362;55.932;2023-07-13T02:38:34;99427.78;;;20.87;44.65
78932;BME280;68331;53.362;55.932;2023-07-13T02:41:06;99408.38;;;21.27;43.47
78932;BME280;68331;53.362;55.932;2023-07-13T02:43:34;99427.94;;;21.18;43.63
78932;BME280;68331;53.362;55.932;2023-07-13T02:46:03;99431.84;;;21.25;43.72
78932;BME280;68331;53.362;55.932;2023-07-13T02:48:37;99433.56;;;21.15;43.70
78932;BME280;68331;53.362;55.932;2023-07-13T02:51:04;99435.72;;;20.78;44.55
78932;BME280;68331;53.362;55.932;2023-07-13T02:53:31;99428.75;;;20.41;45.36
78932;BME280;68331;53.362;55.932;2023-07-13T02:55:57;99430.69;;;20.17;46.02
78932;BME280;68331;53.362;55.932;2023-07-13T02:58:24;99421.69;;;19.71;46.75
78932;BME280;68331;53.362;55.932;2023-07-13T03:00:51;99426.22;;;19.23;48.22
78932;BME280;68331;53.362;55.932;2023-07-13T03:03:18;99429.34;;;18.93;49.13
78932;BME280;68331;53.362;55.932;2023-07-13T03:05:45;99434.59;;;18.69;49.56
78932;BME280;68331;53.362;55.932;2023-07-13T03:08:18;99441.59;;;18.58;50.31
78932;BME280;68331;53.362;55.932;2023-07-13T03:10:45;99448.53;;;18.61;50.24
78932;BME280;68331;53.362;55.932;2023-07-13T03:13:12;99437.84;;;18.74;50.15
78932;BME280;68331;53.362;55.932;2023-07-13T03:15:38;99432.31;;;19.73;48.07
78932;BME280;68331;53.362;55.932;2023-07-13T03:18:04;99422.91;;;22.81;40.98
78932;BME280;68331;53.362;55.932;2023-07-13T03:20:34;99416.78;;;24.81;36.46
78932;BME280;68331;53.362;55.932;2023-07-13T03:23:01;99416.81;;;25.81;34.85
78932;BME280;68331;53.362;55.932;2023-07-13T03:25:29;99411.88;;;25.58;35.33
78932;BME280;68331;53.362;55.932;2023-07-13T03:27:55;99421.25;;;24.35;37.36
78932;BME280;68331;53.362;55.932;2023-07-13T03:30:21;99410.44;;;23.50;38.92
78932;BME280;68331;53.362;55.932;2023-07-13T03:32:47;99420.91;;;23.04;40.19
78932;BME280;68331;53.362;55.932;2023-07-13T03:35:13;99417.66;;;23.10;39.83
78932;BME280;68331;53.362;55.932;2023-07-13T03:37:39;99407.78;;;22.80;40.29
78932;BME280;68331;53.362;55.932;2023-07-13T03:40:12;99402.22;;;22.11;41.98
78932;BME280;68331;53.362;55.932;2023-07-13T03:42:38;99407.66;;;21.36;43.12
78932;BME280;68331;53.362;55.932;2023-07-13T03:45:05;99413.13;;;20.92;44.41
78932;BME280;68331;53.362;55.932;2023-07-13T03:47:32;99419.38;;;20.81;44.87
78932;BME280;68331;53.362;55.932;2023-07-13T03:50:03;99411.31;;;20.92;44.88
78932;BME280;68331;53.362;55.932;2023-07-13T03:52:30;99402.81;;;21.19;44.28
78932;BME280;68331;53.362;55.932;2023-07-13T03:54:56;99402.63;;;21.43;44.18
78932;BME280;68331;53.362;55.932;2023-07-13T03:57:22;99404.63;;;21.62;43.61
78932;BME280;68331;53.362;55.932;2023-07-13T03:59:48;99397.78;;;21.79;43.20
78932;BME280;68331;53.362;55.932;2023-07-13T04:02:14;99387.78;;;21.81;42.85
78932;BME280;68331;53.362;55.932;2023-07-13T04:04:40;99385.25;;;21.79;42.96
78932;BME280;68331;53.362;55.932;2023-07-13T04:07:07;99393.03;;;21.62;42.77
78932;BME280;68331;53.362;55.932;2023-07-13T04:09:35;99384.00;;;21.30;43.39
78932;BME280;68331;53.362;55.932;2023-07-13T04:12:01;99391.69;;;21.24;44.39
78932;BME280;68331;53.362;55.932;2023-07-13T04:14:27;99393.19;;;21.17;45.20
78932;BME280;68331;53.362;55.932;2023-07-13T04:16:53;99389.44;;;21.08;45.58
78932;BME280;68331;53.362;55.932;2023-07-13T04:19:20;99382.66;;;21.25;45.31
78932;BME280;68331;53.362;55.932;2023-07-13T04:21:47;99382.22;;;21.52;45.22
78932;BME280;68331;53.362;55.932;2023-07-13T04:26:38;99391.38;;;22.12;43.29
78932;BME280;68331;53.362;55.932;2023-07-13T04:29:06;99391.00;;;22.47;42.73
78932;BME280;68331;53.362;55.932;2023-07-13T04:31:33;99394.16;;;22.62;41.88
78932;BME280;68331;53.362;55.932;2023-07-13T04:33:59;99377.34;;;22.39;41.67
78932;BME280;68331;53.362;55.932;2023-07-13T04:36:25;99378.44;;;22.67;41.38
78932;BME280;68331;53.362;55.932;2023-07-13T04:38:54;99378.09;;;22.91;40.79
78932;BME280;68331;53.362;55.932;2023-07-13T04:41:21;99366.66;;;23.09;40.08
78932;BME280;68331;53.362;55.932;2023-07-13T04:43:47;99366.25;;;23.42;39.57
78932;BME280;68331;53.362;55.932;2023-07-13T04:46:16;99363.81;;;23.59;38.88
78932;BME280;68331;53.362;55.932;2023-07-13T04:48:46;99364.13;;;23.36;39.20
78932;BME280;68331;53.362;55.932;2023-07-13T04:51:12;99352.91;;;23.41;39.45
78932;BME280;68331;53.362;55.932;2023-07-13T04:53:38;99362.56;;;23.34;39.08
78932;BME280;68331;53.362;55.932;2023-07-13T04:56:04;99351.22;;;23.30;39.12
78932;BME280;68331;53.362;55.932;2023-07-13T04:58:30;99354.03;;;23.77;38.39
78932;BME280;68331;53.362;55.932;2023-07-13T05:01:06;99343.00;;;24.08;37.23
78932;BME280;68331;53.362;55.932;2023-07-13T05:03:33;99342.00;;;24.09;37.25
78932;BME280;68331;53.362;55.932;2023-07-13T05:06:03;99343.28;;;24.52;36.35
78932;BME280;68331;53.362;55.932;2023-07-13T05:08:30;99342.31;;;24.89;34.98
78932;BME280;68331;53.362;55.932;2023-07-13T05:10:55;99337.22;;;25.13;34.92
78932;BME280;68331;53.362;55.932;2023-07-13T05:13:22;99337.88;;;25.33;34.85
78932;BME280;68331;53.362;55.932;2023-07-13T05:16:00;99334.91;;;25.18;35.60
78932;BME280;68331;53.362;55.932;2023-07-13T05:18:28;99330.69;;;24.88;36.00
78932;BME280;68331;53.362;55.932;2023-07-13T05:21:05;99334.47;;;24.50;36.54
78932;BME280;68331;53.362;55.932;2023-07-13T05:23:32;99330.75;;;24.23;36.70
78932;BME280;68331;53.362;55.932;2023-07-13T05:25:59;99328.94;;;24.14;37.30
78932;BME280;68331;53.362;55.932;2023-07-13T05:28:27;99326.97;;;24.16;37.57
78932;BME280;68331;53.362;55.932;2023-07-13T05:30:53;99329.97;;;24.13;37.30
78932;BME280;68331;53.362;55.932;2023-07-13T05:33:21;99321.88;;;24.41;37.20
78932;BME280;68331;53.362;55.932;2023-07-13T05:35:47;99315.09;;;24.64;36.66
78932;BME280;68331;53.362;55.932;2023-07-13T05:38:13;99316.81;;;24.83;36.49
78932;BME280;68331;53.362;55.932;2023-07-13T05:40:39;99315.03;;;24.92;36.24
78932;BME280;68331;53.362;55.932;2023-07-13T05:43:05;99312.53;;;25.08;35.88
78932;BME280;68331;53.362;55.932;2023-07-13T05:45:31;99317.94;;;25.52;35.39
78932;BME280;68331;53.362;55.932;2023-07-13T05:47:57;99293.94;;;26.86;32.49
78932;BME280;68331;53.362;55.932;2023-07-13T05:50:23;99306.69;;;27.34;31.39
78932;BME280;68331;53.362;55.932;2023-07-13T05:52:49;99292.94;;;27.11;31.91
78932;BME280;68331;53.362;55.932;2023-07-13T05:55:16;99296.13;;;26.74;32.46
78932;BME280;68331;53.362;55.932;2023-07-13T05:57:42;99292.91;;;26.28;33.16
78932;BME280;68331;53.362;55.932;2023-07-13T06:00:08;99295.34;;;26.05;33.44
78932;BME280;68331;53.362;55.932;2023-07-13T06:02:38;99295.63;;;25.94;34.05
78932;BME280;68331;53.362;55.932;2023-07-13T06:05:04;99283.44;;;25.90;33.82
78932;BME280;68331;53.362;55.932;2023-07-13T06:07:30;99288.94;;;25.80;34.38
78932;BME280;68331;53.362;55.932;2023-07-13T06:09:56;99281.84;;;25.53;34.49
78932;BME280;68331;53.362;55.932;2023-07-13T06:12:25;99284.66;;;25.43;34.90
78932;BME280;68331;53.362;55.932;2023-07-13T06:14:51;99279.44;;;25.24;35.46
78932;BME280;68331;53.362;55.932;2023-07-13T06:17:18;99285.78;;;25.15;35.35
78932;BME280;68331;53.362;55.932;2023-07-13T06:19:44;99290.94;;;25.08;35.68
78932;BME280;68331;53.362;55.932;2023-07-13T06:22:10;99289.63;;;25.12;36.07
78932;BME280;68331;53.362;55.932;2023-07-13T06:24:36;99294.72;;;25.15;35.61
78932;BME280;68331;53.362;55.932;2023-07-13T06:27:02;99290.88;;;25.18;34.01
78932;BME280;68331;53.362;55.932;2023-07-13T06:29:28;99288.75;;;25.12;33.52
78932;BME280;68331;53.362;55.932;2023-07-13T06:31:54;99288.44;;;24.97;33.20
78932;BME280;68331;53.362;55.932;2023-07-13T06:34:20;99286.59;;;24.97;33.25
78932;BME280;68331;53.362;55.932;2023-07-13T06:36:46;99287.06;;;24.93;33.53
78932;BME280;68331;53.362;55.932;2023-07-13T06:39:12;99290.91;;;24.90;33.67
78932;BME280;68331;53.362;55.932;2023-07-13T06:41:38;99291.31;;;24.95;33.54
78932;BME280;68331;53.362;55.932;2023-07-13T06:44:09;99287.44;;;24.98;33.37
78932;BME280;68331;53.362;55.932;2023-07-13T06:46:36;99296.84;;;25.12;34.03
78932;BME280;68331;53.362;55.932;2023-07-13T06:49:02;99289.06;;;25.26;33.86
78932;BME280;68331;53.362;55.932;2023-07-13T06:51:28;99294.47;;;25.52;33.92
78932;BME280;68331;53.362;55.932;2023-07-13T06:53:54;99294.88;;;25.58;33.67
78932;BME280;68331;53.362;55.932;2023-07-13T06:56:22;99280.63;;;25.47;33.64
78932;BME280;68331;53.362;55.932;2023-07-13T06:58:48;99286.88;;;25.48;33.71
78932;BME280;68331;53.362;55.932;2023-07-13T07:01:14;99285.06;;;25.31;33.58
78932;BME280;68331;53.362;55.932;2023-07-13T07:03:40;99278.88;;;25.20;34.30
78932;BME280;68331;53.362;55.932;2023-07-13T07:06:16;99283.22;;;25.13;34.42
78932;BME280;68331;53.362;55.932;2023-07-13T07:08:43;99273.81;;;24.99;34.02
78932;BME280;68331;53.362;55.932;2023-07-13T07:11:17;99282.06;;;24.80;34.08
78932;BME280;68331;53.362;55.932;2023-07-13T07:13:43;99268.16;;;24.57;34.58
78932;BME280;68331;53.362;55.932;2023-07-13T07:16:09;99268.06;;;24.49;34.68
78932;BME280;68331;53.362;55.932;2023-07-13T07:18:36;99274.50;;;24.38;34.66
78932;BME280;68331;53.362;55.932;2023-07-13T07:21:03;99270.00;;;24.29;34.68
78932;BME280;68331;53.362;55.932;2023-07-13T07:23:29;99258.03;;;24.13;34.88
78932;BME280;68331;53.362;55.932;2023-07-13T07:25:55;99264.84;;;24.08;35.48
78932;BME280;68331;53.362;55.932;2023-07-13T07:28:21;99270.47;;;23.97;35.73
78932;BME280;68331;53.362;55.932;2023-07-13T07:30:48;99261.19;;;23.99;35.25
78932;BME280;68331;53.362;55.932;2023-07-13T07:33:14;99257.31;;;24.11;35.62
78932;BME280;68331;53.362;55.932;2023-07-13T07:35:40;99264.75;;;24.27;35.58
78932;BME280;68331;53.362;55.932;2023-07-13T07:38:06;99261.69;;;24.40;35.46
78932;BME280;68331;53.362;55.932;2023-07-13T07:40:38;99256.75;;;24.63;34.85
78932;BME280;68331;53.362;55.932;2023-07-13T07:43:10;99252.97;;;24.92;34.06
78932;BME280;68331;53.362;55.932;2023-07-13T07:45:36;99250.88;;;25.03;33.07
78932;BME280;68331;53.362;55.932;2023-07-13T07:48:04;99254.97;;;25.08;33.32
78932;BME280;68331;53.362;55.932;2023-07-13T07:50:31;99253.91;;;25.18;33.34
78932;BME280;68331;53.362;55.932;2023-07-13T07:52:58;99257.03;;;25.32;32.64
78932;BME280;68331;53.362;55.932;2023-07-13T07:55:24;99250.41;;;25.52;32.64
78932;BME280;68331;53.362;55.932;2023-07-13T07:57:56;99253.59;;;25.73;32.44
78932;BME280;68331;53.362;55.932;2023-07-13T08:00:22;99250.16;;;25.89;31.80
78932;BME280;68331;53.362;55.932;2023-07-13T08:02:49;99224.03;;;26.06;32.25
78932;BME280;68331;53.362;55.932;2023-07-13T08:05:15;99247.47;;;26.40;32.07
78932;BME280;68331;53.362;55.932;2023-07-13T08:07:41;99255.78;;;26.47;31.37
78932;BME280;68331;53.362;55.932;2023-07-13T08:10:08;99245.06;;;26.20;31.45
78932;BME280;68331;53.362;55.932;2023-07-13T08:12:36;99248.09;;;25.83;32.01
78932;BME280;68331;53.362;55.932;2023-07-13T08:15:03;99238.47;;;25.55;32.32
78932;BME280;68331;53.362;55.932;2023-07-13T08:17:33;99244.25;;;25.34;33.10
78932;BME280;68331;53.362;55.932;2023-07-13T08:19:59;99240.94;;;25.04;33.80
78932;BME280;68331;53.362;55.932;2023-07-13T08:22:25;99237.72;;;24.82;34.25
78932;BME280;68331;53.362;55.932;2023-07-13T08:24:51;99232.56;;;24.71;34.56
78932;BME280;68331;53.362;55.932;2023-07-13T08:27:23;99248.22;;;24.68;34.90
78932;BME280;68331;53.362;55.932;2023-07-13T08:29:50;99247.97;;;24.61;35.04
78932;BME280;68331;53.362;55.932;2023-07-13T08:32:17;99244.19;;;24.54;35.63
78932;BME280;68331;53.362;55.932;2023-07-13T08:34:44;99243.56;;;24.42;36.88
78932;BME280;68331;53.362;55.932;2023-07-13T08:37:10;99251.38;;;24.35;37.99
78932;BME280;68331;53.362;55.932;2023-07-13T08:39:36;99250.72;;;24.24;38.54
78932;BME280;68331;53.362;55.932;2023-07-13T08:42:13;99245.81;;;24.19;38.62
78932;BME280;68331;53.362;55.932;2023-07-13T08:45:20;99247.66;;;24.19;38.97
78932;BME280;68331;53.362;55.932;2023-07-13T08:47:55;99247.44;;;24.30;39.40
78932;BME280;68331;53.362;55.932;2023-07-13T08:50:26;99251.13;;;24.29;39.50
78932;BME280;68331;53.362;55.932;2023-07-13T08:52:55;99247.03;;;24.25;39.62
78932;BME280;68331;53.362;55.932;2023-07-13T08:55:27;99244.84;;;23.83;40.76
78932;BME280;68331;53.362;55.932;2023-07-13T08:58:03;99250.31;;;23.44;41.86
78932;BME280;68331;53.362;55.932;2023-07-13T09:00:50;99252.34;;;23.23;43.46
78932;BME280;68331;53.362;55.932;2023-07-13T09:03:29;99255.06;;;23.03;44.35
78932;BME280;68331;53.362;55.932;2023-07-13T09:05:58;99252.78;;;22.89;44.11
78932;BME280;68331;53.362;55.932;2023-07-13T09:08:57;99245.13;;;22.74;44.35
78932;BME280;68331;53.362;55.932;2023-07-13T09:11:46;99256.31;;;22.80;44.25
78932;BME280;68331;53.362;55.932;2023-07-13T09:14:32;99254.06;;;22.85;43.80
78932;BME280;68331;53.362;55.932;2023-07-13T09:17:08;99252.78;;;22.69;44.33
78932;BME280;68331;53.362;55.932;2023-07-13T09:19:37;99257.97;;;22.51;44.59
78932;BME280;68331;53.362;55.932;2023-07-13T09:22:05;99251.03;;;22.39;44.80
78932;BME280;68331;53.362;55.932;2023-07-13T09:24:52;99260.91;;;22.29;45.11
78932;BME280;68331;53.362;55.932;2023-07-13T09:27:22;99259.78;;;22.22;45.67
78932;BME280;68331;53.362;55.932;2023-07-13T09:32:33;99247.81;;;22.05;47.24
78932;BME280;68331;53.362;55.932;2023-07-13T09:34:59;99248.94;;;22.02;48.11
78932;BME280;68331;53.362;55.932;2023-07-13T09:37:30;99242.28;;;22.06;48.29
78932;BME280;68331;53.362;55.932;2023-07-13T09:39:59;99254.94;;;22.16;48.51
78932;BME280;68331;53.362;55.932;2023-07-13T09:42:31;99249.75;;;22.24;48.16
78932;BME280;68331;53.362;55.932;2023-07-13T09:45:00;99239.97;;;22.33;48.08
78932;BME280;68331;53.362;55.932;2023-07-13T09:47:37;99243.25;;;22.36;48.69
78932;BME280;68331;53.362;55.932;2023-07-13T09:50:14;99236.91;;;22.37;48.46
78932;BME280;68331;53.362;55.932;2023-07-13T09:52:43;99238.69;;;22.27;48.52
78932;BME280;68331;53.362;55.932;2023-07-13T09:55:36;99241.50;;;22.16;48.75
78932;BME280;68331;53.362;55.932;2023-07-13T10:00:41;99225.00;;;22.40;48.71
78932;BME280;68331;53.362;55.932;2023-07-13T10:03:18;99234.22;;;22.57;48.93
78932;BME280;68331;53.362;55.932;2023-07-13T10:05:48;99235.34;;;22.54;48.71
78932;BME280;68331;53.362;55.932;2023-07-13T10:08:28;99228.13;;;22.35;48.31
78932;BME280;68331;53.362;55.932;2023-07-13T10:11:02;99240.13;;;22.21;48.82
78932;BME280;68331;53.362;55.932;2023-07-13T10:13:37;99237.94;;;22.15;48.86
78932;BME280;68331;53.362;55.932;2023-07-13T10:16:07;99247.19;;;22.22;49.06
78932;BME280;68331;53.362;55.932;2023-07-13T10:18:48;99241.56;;;22.35;49.38
78932;BME280;68331;53.362;55.932;2023-07-13T10:21:20;99236.91;;;22.37;49.27
78932;BME280;68331;53.362;55.932;2023-07-13T10:23:51;99239.28;;;22.21;49.50
78932;BME280;68331;53.362;55.932;2023-07-13T10:26:23;99241.72;;;22.03;50.04
78932;BME280;68331;53.362;55.932;2023-07-13T10:28:54;99237.44;;;21.91;50.51
78932;BME280;68331;53.362;55.932;2023-07-13T10:31:22;99236.31;;;21.93;50.43
78932;BME280;68331;53.362;55.932;2023-07-13T10:33:49;99238.19;;;22.02;50.86
78932;BME280;68331;53.362;55.932;2023-07-13T10:36:35;99233.50;;;22.04;50.42
78932;BME280;68331;53.362;55.932;2023-07-13T10:39:05;99223.94;;;22.12;49.76
78932;BME280;68331;53.362;55.932;2023-07-13T10:41:36;99221.34;;;22.00;50.44
78932;BME280;68331;53.362;55.932;2023-07-13T10:44:13;99222.25;;;21.70;51.43
78932;BME280;68331;53.362;55.932;2023-07-13T10:46:43;99203.09;;;21.54;51.56
78932;BME280;68331;53.362;55.932;2023-07-13T10:49:10;99205.06;;;21.52;51.56
78932;BME280;68331;53.362;55.932;2023-07-13T10:51:37;99208.53;;;21.43;51.64
78932;BME280;68331;53.362;55.932;2023-07-13T10:54:11;99202.09;;;21.34;52.40
78932;BME280;68331;53.362;55.932;2023-07-13T10:56:39;99207.16;;;21.27;52.57
78932;BME280;68331;53.362;55.932;2023-07-13T11:01:50;99204.69;;;21.14;54.13
78932;BME280;68331;53.362;55.932;2023-07-13T11:04:19;99200.09;;;21.05;54.65
78932;BME280;68331;53.362;55.932;2023-07-13T11:06:48;99202.78;;;21.05;55.31
78932;BME280;68331;53.362;55.932;2023-07-13T11:09:39;99195.06;;;21.12;55.74
78932;BME280;68331;53.362;55.932;2023-07-13T11:12:09;99188.22;;;21.19;55.81
78932;BME280;68331;53.362;55.932;2023-07-13T11:14:44;99193.34;;;21.32;55.75
78932;BME280;68331;53.362;55.932;2023-07-13T11:17:38;99183.00;;;21.48;55.36
78932;BME280;68331;53.362;55.932;2023-07-13T11:22:47;99187.19;;;21.72;56.03
78932;BME280;68331;53.362;55.932;2023-07-13T11:25:34;99178.72;;;21.67;56.23
78932;BME280;68331;53.362;55.932;2023-07-13T11:28:17;99180.31;;;21.48;56.80
78932;BME280;68331;53.362;55.932;2023-07-13T11:36:10;99165.25;;;21.57;56.89
78932;BME280;68331;53.362;55.932;2023-07-13T11:42:01;99158.84;;;21.48;57.25
78932;BME280;68331;53.362;55.932;2023-07-13T11:44:30;99160.78;;;21.36;57.53
78932;BME280;68331;53.362;55.932;2023-07-13T11:46:58;99156.97;;;21.39;57.61
78932;BME280;68331;53.362;55.932;2023-07-13T11:49:31;99158.84;;;21.48;57.38
78932;BME280;68331;53.362;55.932;2023-07-13T11:51:58;99149.09;;;21.47;57.47
78932;BME280;68331;53.362;55.932;2023-07-13T11:54:33;99153.06;;;21.53;56.74
78932;BME280;68331;53.362;55.932;2023-07-13T11:57:12;99153.44;;;21.39;56.92
78932;BME280;68331;53.362;55.932;2023-07-13T11:59:44;99155.16;;;21.19;56.79
78932;BME280;68331;53.362;55.932;2023-07-13T12:02:18;99146.34;;;21.07;56.70
78932;BME280;68331;53.362;55.932;2023-07-13T12:04:49;99148.66;;;20.90;57.04
78932;BME280;68331;53.362;55.932;2023-07-13T12:07:18;99151.97;;;20.83;57.38
78932;BME280;68331;53.362;55.932;2023-07-13T12:09:45;99157.25;;;20.73;57.58
78932;BME280;68331;53.362;55.932;2023-07-13T12:12:19;99150.16;;;20.62;57.99
78932;BME280;68331;53.362;55.932;2023-07-13T12:14:45;99149.81;;;20.56;58.17
78932;BME280;68331;53.362;55.932;2023-07-13T12:17:24;99141.94;;;20.43;58.57
78932;BME280;68331;53.362;55.932;2023-07-13T12:19:52;99146.63;;;20.30;58.79
78932;BME280;68331;53.362;55.932;2023-07-13T12:22:19;99145.53;;;20.21;58.81
78932;BME280;68331;53.362;55.932;2023-07-13T12:24:47;99136.53;;;20.22;59.30
78932;BME280;68331;53.362;55.932;2023-07-13T12:27:23;99128.22;;;20.25;59.59
78932;BME280;68331;53.362;55.932;2023-07-13T12:30:05;99122.63;;;20.28;59.66
78932;BME280;68331;53.362;55.932;2023-07-13T12:32:32;99121.50;;;20.31;59.62
78932;BME280;68331;53.362;55.932;2023-07-13T12:35:16;99111.91;;;20.28;59.75
78932;BME280;68331;53.362;55.932;2023-07-13T12:37:46;99115.75;;;20.35;59.47
78932;BME280;68331;53.362;55.932;2023-07-13T12:40:17;99118.31;;;20.37;59.45
78932;BME280;68331;53.362;55.932;2023-07-13T12:42:47;99119.91;;;20.39;59.14
78932;BME280;68331;53.362;55.932;2023-07-13T12:45:20;99111.34;;;20.46;59.12
78932;BME280;68331;53.362;55.932;2023-07-13T12:47:50;99108.78;;;20.55;58.83
78932;BME280;68331;53.362;55.932;2023-07-13T12:50:18;99105.75;;;20.70;58.57
78932;BME280;68331;53.362;55.932;2023-07-13T12:52:50;99098.28;;;20.94;57.81
78932;BME280;68331;53.362;55.932;2023-07-13T12:55:19;99094.00;;;21.12;56.91
78932;BME280;68331;53.362;55.932;2023-07-13T12:57:54;99089.78;;;21.20;56.36
78932;BME280;68331;53.362;55.932;2023-07-13T13:00:29;99093.84;;;21.35;56.38
78932;BME280;68331;53.362;55.932;2023-07-13T13:03:04;99083.56;;;21.59;55.19
78932;BME280;68331;53.362;55.932;2023-07-13T13:05:32;99072.59;;;21.72;54.44
78932;BME280;68331;53.362;55.932;2023-07-13T13:07:59;99068.38;;;21.89;53.51
78932;BME280;68331;53.362;55.932;2023-07-13T13:10:25;99064.72;;;22.10;53.76
78932;BME280;68331;53.362;55.932;2023-07-13T13:12:53;99058.13;;;22.80;52.16
78932;BME280;68331;53.362;55.932;2023-07-13T13:15:19;99043.41;;;23.21;51.06
78932;BME280;68331;53.362;55.932;2023-07-13T13:17:47;99043.91;;;23.35;50.40
78932;BME280;68331;53.362;55.932;2023-07-13T13:20:19;99049.34;;;23.25;50.75
78932;BME280;68331;53.362;55.932;2023-07-13T13:22:45;99044.56;;;22.82;51.37
78932;BME280;68331;53.362;55.932;2023-07-13T13:25:12;99053.09;;;22.58;52.01